Time;durP1;ratioP1;P1;durP2;ratioP2;P2;SDS_P1;SDS_P2;PMS_P1;PMS_P2;Temp;Humidity;BMP_temperature;BMP_pressure;BME280_temperature;BME280_humidity;BME280_pressure;Samples;Min_cycle;Max_cycle;Signal;HPM_P1;HPM_P2
2024/02/28 00:02:21;;;;;;;23.33;16.60;;;7.50;11.20;;;;;;5033358;28;20304;-69
2024/02/28 00:04:47;;;;;;;23.50;16.50;;;7.40;12.50;;;;;;5051146;28;20187;-69
2024/02/28 00:07:12;;;;;;;24.53;16.07;;;7.40;11.30;;;;;;5033404;28;20518;-70
2024/02/28 00:09:38;;;;;;;26.47;16.30;;;7.40;12.20;;;;;;5051058;28;20175;-69
2024/02/28 00:12:04;;;;;;;23.20;15.93;;;7.40;12.10;;;;;;5050993;28;20255;-69
2024/02/28 00:14:29;;;;;;;30.87;16.47;;;7.40;12.20;;;;;;5050948;28;20203;-69
2024/02/28 00:16:55;;;;;;;25.87;16.03;;;7.30;11.50;;;;;;5051380;28;20748;-69
2024/02/28 00:19:22;;;;;;;22.00;13.73;;;7.20;12.20;;;;;;5051001;28;20228;-69
2024/02/28 00:21:47;;;;;;;24.03;16.63;;;7.00;12.80;;;;;;5050833;28;20199;-69
2024/02/28 00:24:13;;;;;;;26.70;17.70;;;6.90;13.50;;;;;;5050661;28;20418;-70
2024/02/28 00:26:42;;;;;;;21.60;15.00;;;6.70;14.80;;;;;;5035545;28;20270;-69
2024/02/28 00:29:09;;;;;;;24.60;17.57;;;6.60;16.00;;;;;;5054443;28;20202;-69
2024/02/28 00:31:35;;;;;;;19.13;14.03;;;6.50;16.60;;;;;;5054393;28;20433;-68
2024/02/28 00:34:00;;;;;;;26.70;16.50;;;6.40;16.80;;;;;;5054153;28;20465;-68
2024/02/28 00:36:25;;;;;;;30.97;16.97;;;6.30;17.90;;;;;;5054405;28;20230;-69
2024/02/28 00:38:51;;;;;;;23.90;17.07;;;6.20;18.80;;;;;;5054256;28;20171;-69
2024/02/28 00:41:17;;;;;;;27.57;15.40;;;6.10;19.50;;;;;;5054020;28;20233;-68
2024/02/28 00:43:42;;;;;;;28.90;17.57;;;6.00;20.10;;;;;;5054055;28;20175;-68
2024/02/28 00:46:11;;;;;;;27.03;18.30;;;5.90;20.70;;;;;;5054116;28;20249;-68
2024/02/28 00:48:40;;;;;;;23.37;16.70;;;5.90;21.70;;;;;;5053995;28;20198;-68
2024/02/28 00:51:05;;;;;;;24.50;15.50;;;5.80;21.30;;;;;;5053891;28;20451;-68
2024/02/28 00:53:32;;;;;;;26.57;16.53;;;5.70;21.70;;;;;;5053739;28;20453;-69
2024/02/28 00:55:57;;;;;;;27.80;19.00;;;5.70;23.50;;;;;;5053992;28;20175;-69
2024/02/28 00:58:23;;;;;;;29.17;18.57;;;5.70;24.10;;;;;;5053824;28;20775;-69
2024/02/28 01:00:48;;;;;;;24.37;17.47;;;5.60;24.70;;;;;;5035900;28;20194;-68
2024/02/28 01:03:15;;;;;;;21.53;15.70;;;5.60;24.20;;;;;;5053803;28;20202;-67
2024/02/28 01:05:42;;;;;;;29.50;19.50;;;5.50;24.30;;;;;;5053641;28;20227;-69
2024/02/28 01:08:07;;;;;;;29.07;17.83;;;5.50;25.30;;;;;;5035893;28;20432;-69
2024/02/28 01:10:34;;;;;;;28.70;18.67;;;5.40;25.50;;;;;;5053415;28;20472;-69
2024/02/28 01:12:59;;;;;;;26.90;17.60;;;5.40;26.30;;;;;;5053340;28;20208;-70
2024/02/28 01:15:25;;;;;;;27.90;17.37;;;5.30;27.80;;;;;;5053551;28;20421;-69
2024/02/28 01:17:50;;;;;;;28.50;18.37;;;5.30;27.10;;;;;;5053517;28;20375;-68
2024/02/28 01:20:16;;;;;;;31.43;19.60;;;5.20;27.50;;;;;;5053350;28;20703;-69
2024/02/28 01:22:41;;;;;;;29.97;19.30;;;5.20;28.10;;;;;;5053279;28;20253;-68
2024/02/28 01:25:07;;;;;;;28.67;18.03;;;5.10;27.00;;;;;;5053562;28;20546;-68
2024/02/28 01:27:33;;;;;;;25.00;17.60;;;5.10;27.90;;;;;;5053788;28;20177;-68
2024/02/28 01:29:58;;;;;;;28.87;19.50;;;5.10;26.60;;;;;;5053774;28;20409;-68
2024/02/28 01:32:24;;;;;;;26.40;18.23;;;5.00;26.90;;;;;;5053208;28;20195;-69
2024/02/28 01:34:50;;;;;;;25.33;16.60;;;5.00;27.20;;;;;;5052978;28;20214;-69
2024/02/28 01:37:15;;;;;;;28.37;16.23;;;4.90;28.10;;;;;;5053117;28;20701;-68
2024/02/28 01:39:41;;;;;;;21.80;15.40;;;4.80;28.30;;;;;;5053059;28;20182;-68
2024/02/28 01:42:06;;;;;;;29.93;18.87;;;4.80;28.50;;;;;;5053040;28;20653;-68
2024/02/28 01:44:38;;;;;;;26.13;17.13;;;4.90;28.80;;;;;;5053528;28;20182;-67
2024/02/28 01:47:04;;;;;;;30.23;19.57;;;4.80;29.00;;;;;;5053031;28;20159;-67
2024/02/28 01:49:30;;;;;;;27.60;17.53;;;4.90;30.00;;;;;;5052934;28;20515;-67
2024/02/28 01:51:56;;;;;;;24.70;16.60;;;4.90;30.50;;;;;;5052829;28;20198;-67
2024/02/28 01:54:22;;;;;;;23.60;17.00;;;5.10;30.50;;;;;;5052628;28;20374;-68
2024/02/28 01:56:48;;;;;;;30.57;18.97;;;5.20;28.50;;;;;;5053006;28;20415;-68
2024/02/28 01:59:15;;;;;;;27.43;17.47;;;5.30;27.10;;;;;;5053116;28;20413;-67
2024/02/28 02:01:41;;;;;;;28.50;17.77;;;5.40;27.00;;;;;;5053164;28;20805;-68
2024/02/28 02:04:07;;;;;;;26.63;18.93;;;5.50;25.50;;;;;;5052550;28;20413;-67
2024/02/28 02:06:35;;;;;;;23.23;16.93;;;5.60;25.50;;;;;;5052615;28;20416;-67
2024/02/28 02:09:01;;;;;;;25.17;17.40;;;5.70;24.70;;;;;;5052524;28;20261;-67
2024/02/28 02:11:28;;;;;;;29.47;18.30;;;5.70;24.80;;;;;;5052400;28;20485;-67
2024/02/28 02:13:54;;;;;;;29.37;18.73;;;5.80;24.50;;;;;;5052243;28;20828;-67
2024/02/28 02:16:26;;;;;;;23.63;16.50;;;5.90;23.80;;;;;;5052476;28;20465;-68
2024/02/28 02:18:51;;;;;;;29.77;18.00;;;6.00;23.00;;;;;;5052399;28;20250;-68
2024/02/28 02:21:24;;;;;;;28.40;17.80;;;6.00;22.00;;;;;;5052288;28;21029;-68
2024/02/28 02:23:49;;;;;;;29.13;17.30;;;6.10;21.80;;;;;;5052159;28;20412;-68
2024/02/28 02:26:15;;;;;;;29.00;18.10;;;6.10;21.50;;;;;;5052596;28;20413;-69
2024/02/28 02:28:41;;;;;;;27.53;17.50;;;6.20;20.90;;;;;;5052319;28;20178;-69
2024/02/28 02:31:06;;;;;;;32.83;17.60;;;6.20;20.90;;;;;;5052364;28;20218;-67
2024/02/28 02:33:32;;;;;;;27.70;17.53;;;6.20;20.90;;;;;;5051963;28;20749;-67
2024/02/28 02:35:58;;;;;;;31.40;18.20;;;6.30;21.00;;;;;;5052777;28;20174;-67
2024/02/28 02:38:24;;;;;;;33.70;19.07;;;6.30;20.70;;;;;;5053701;28;20193;-67
2024/02/28 02:40:52;;;;;;;31.93;18.83;;;6.30;20.00;;;;;;5053773;28;20622;-67
2024/02/28 02:43:18;;;;;;;25.90;17.07;;;6.30;20.60;;;;;;5052101;28;20179;-67
2024/02/28 02:45:44;;;;;;;29.77;21.23;;;6.30;21.00;;;;;;5052049;28;20471;-69
2024/02/28 02:48:10;;;;;;;29.37;18.47;;;6.30;20.60;;;;;;5051412;28;20252;-68
2024/02/28 02:50:35;;;;;;;30.47;18.53;;;6.40;19.80;;;;;;5051741;28;20442;-68
2024/02/28 02:53:02;;;;;;;32.47;18.27;;;6.40;19.10;;;;;;5051581;28;20436;-68
2024/02/28 02:55:27;;;;;;;28.53;18.33;;;6.50;18.70;;;;;;5052032;28;20167;-68
2024/02/28 02:57:54;;;;;;;29.80;20.07;;;6.50;19.20;;;;;;5051796;28;20892;-68
2024/02/28 03:00:20;;;;;;;28.27;17.60;;;6.50;19.20;;;;;;5051758;28;20677;-68
2024/02/28 03:02:45;;;;;;;29.30;18.17;;;6.50;19.90;;;;;;5033940;28;20426;-69
2024/02/28 03:05:11;;;;;;;28.67;19.80;;;6.60;19.10;;;;;;5051924;28;20583;-69
2024/02/28 03:07:36;;;;;;;29.90;20.20;;;6.50;19.50;;;;;;5052100;28;20182;-68
2024/02/28 03:10:03;;;;;;;28.83;19.60;;;6.60;18.90;;;;;;5052039;28;20174;-68
2024/02/28 03:12:28;;;;;;;29.60;19.50;;;6.60;18.80;;;;;;5058544;22;20227;-68
2024/02/28 03:14:54;;;;;;;28.00;16.23;;;6.60;19.30;;;;;;5032308;28;20473;-68
2024/02/28 03:17:19;;;;;;;31.30;18.23;;;6.70;19.30;;;;;;5032487;28;20172;-69
2024/02/28 03:19:45;;;;;;;31.13;18.53;;;6.70;19.20;;;;;;5032463;28;20597;-68
2024/02/28 03:22:10;;;;;;;27.63;18.03;;;6.70;18.90;;;;;;5032187;28;20487;-69
2024/02/28 03:24:36;;;;;;;23.50;17.20;;;6.60;18.90;;;;;;5014298;28;20182;-69
2024/02/28 03:27:02;;;;;;;24.93;18.17;;;6.60;20.30;;;;;;5032215;28;20180;-69
2024/02/28 03:29:28;;;;;;;28.23;19.93;;;6.70;19.80;;;;;;5032060;28;20278;-69
2024/02/28 03:31:53;;;;;;;26.37;17.30;;;6.70;19.30;;;;;;5032241;28;20461;-69
2024/02/28 03:34:19;;;;;;;22.03;15.60;;;6.60;19.40;;;;;;5013845;28;20469;-69
2024/02/28 03:36:45;;;;;;;25.60;18.27;;;6.70;20.30;;;;;;5032308;28;20190;-69
2024/02/28 03:39:10;;;;;;;30.60;17.87;;;6.70;19.40;;;;;;5032856;28;20194;-69
2024/02/28 03:41:36;;;;;;;27.07;16.43;;;6.70;19.40;;;;;;5033037;28;20491;-69
2024/02/28 03:44:01;;;;;;;28.50;17.70;;;6.70;19.60;;;;;;5031766;28;20222;-68
2024/02/28 03:46:27;;;;;;;30.13;19.10;;;6.70;19.10;;;;;;5015429;28;20550;-69
2024/02/28 03:48:53;;;;;;;25.83;19.43;;;6.70;19.40;;;;;;5014648;28;20191;-69
2024/02/28 03:51:18;;;;;;;28.30;18.77;;;6.70;20.00;;;;;;5031029;28;20215;-69
2024/02/28 03:53:44;;;;;;;22.73;17.27;;;6.70;19.50;;;;;;5030814;28;20573;-69
2024/02/28 03:56:09;;;;;;;24.47;17.00;;;6.70;19.20;;;;;;5031297;28;20181;-68
2024/02/28 03:58:35;;;;;;;28.93;18.30;;;6.70;19.60;;;;;;5031930;28;20251;-69
2024/02/28 04:01:00;;;;;;;24.07;16.90;;;6.80;18.90;;;;;;5032997;28;20229;-68
2024/02/28 04:03:26;;;;;;;31.40;20.97;;;6.80;18.70;;;;;;5034939;28;20436;-70
2024/02/28 04:05:52;;;;;;;27.10;18.20;;;6.90;18.10;;;;;;5035391;28;20193;-68
2024/02/28 04:08:17;;;;;;;31.50;19.27;;;6.90;17.20;;;;;;5035013;28;20688;-69
2024/02/28 04:10:43;;;;;;;31.83;18.10;;;7.00;17.00;;;;;;5034795;28;20309;-68
2024/02/28 04:13:09;;;;;;;23.20;17.87;;;7.00;17.00;;;;;;5017046;28;20181;-68
2024/02/28 04:15:34;;;;;;;25.93;19.17;;;7.00;17.20;;;;;;5034744;28;20176;-69
2024/02/28 04:18:00;;;;;;;28.53;20.63;;;7.00;17.20;;;;;;5034830;28;20714;-69
2024/02/28 04:20:26;;;;;;;26.77;19.90;;;6.90;17.10;;;;;;5034947;28;20172;-68
2024/02/28 04:22:51;;;;;;;27.60;18.57;;;6.90;17.10;;;;;;5034541;28;20195;-68
2024/02/28 04:25:17;;;;;;;29.07;19.07;;;7.00;17.20;;;;;;5034930;28;20669;-67
2024/02/28 04:27:43;;;;;;;35.10;19.30;;;7.00;16.90;;;;;;5034823;28;20251;-69
2024/02/28 04:30:09;;;;;;;29.90;19.07;;;7.10;16.30;;;;;;5034879;28;20269;-68
2024/02/28 04:32:35;;;;;;;29.40;18.47;;;7.10;16.00;;;;;;5034622;28;20518;-69
2024/02/28 04:35:01;;;;;;;29.37;18.87;;;7.00;15.90;;;;;;5034297;28;20196;-68
2024/02/28 04:37:26;;;;;;;24.63;17.70;;;6.90;16.30;;;;;;5034339;28;20435;-67
2024/02/28 04:39:52;;;;;;;26.47;18.83;;;6.90;16.50;;;;;;5034377;28;20183;-68
2024/02/28 04:42:17;;;;;;;31.73;19.43;;;6.80;17.10;;;;;;5034325;28;20204;-68
2024/02/28 04:44:43;;;;;;;28.20;19.40;;;6.80;17.00;;;;;;5034167;28;20180;-68
2024/02/28 04:47:08;;;;;;;30.23;20.73;;;6.80;17.00;;;;;;5016462;28;20263;-68
2024/02/28 04:49:38;;;;;;;27.23;18.40;;;6.80;17.10;;;;;;5034222;28;20266;-68
2024/02/28 04:52:03;;;;;;;24.83;18.77;;;6.70;17.60;;;;;;5033890;28;20193;-68
2024/02/28 04:54:29;;;;;;;25.93;18.33;;;6.70;17.00;;;;;;5033382;28;20976;-70
2024/02/28 04:56:54;;;;;;;27.23;18.67;;;6.70;17.80;;;;;;5034075;28;20177;-66
2024/02/28 04:59:20;;;;;;;26.70;16.97;;;6.70;17.70;;;;;;5034811;28;20211;-68
2024/02/28 05:01:45;;;;;;;32.90;19.80;;;6.80;17.20;;;;;;5034267;28;20217;-68
2024/02/28 05:04:11;;;;;;;31.20;19.63;;;6.80;17.00;;;;;;5034722;28;20303;-69
2024/02/28 05:06:36;;;;;;;31.30;19.30;;;6.70;17.00;;;;;;5016669;28;20187;-68
2024/02/28 05:09:02;;;;;;;35.60;20.27;;;6.60;17.80;;;;;;5016635;28;20180;-69
2024/02/28 05:11:28;;;;;;;25.43;17.10;;;6.70;17.50;;;;;;5015933;28;20211;-69
2024/02/28 05:13:53;;;;;;;29.60;17.60;;;6.60;17.80;;;;;;5033366;28;20195;-69
2024/02/28 05:16:19;;;;;;;27.20;17.93;;;6.60;17.70;;;;;;5033387;28;20172;-67
2024/02/28 05:18:45;;;;;;;24.20;17.07;;;6.70;17.70;;;;;;5033210;28;20404;-68
2024/02/28 05:21:11;;;;;;;29.00;16.43;;;6.70;17.00;;;;;;5033516;28;20200;-70
2024/02/28 05:23:37;;;;;;;31.00;19.70;;;6.60;16.90;;;;;;5033186;28;20790;-68
2024/02/28 05:26:04;;;;;;;24.10;17.77;;;6.60;17.50;;;;;;5033294;28;20526;-67
2024/02/28 05:28:34;;;;;;;34.07;16.23;;;6.60;18.20;;;;;;5032891;28;20179;-67
2024/02/28 05:31:20;;;;;;;28.40;18.27;;;6.70;18.20;;;;;;5032552;28;20753;-68
2024/02/28 05:33:45;;;;;;;26.70;16.53;;;6.70;18.00;;;;;;5018684;28;20458;-68
2024/02/28 05:36:11;;;;;;;26.60;16.97;;;6.80;17.30;;;;;;5032985;28;20417;-68
2024/02/28 05:38:36;;;;;;;25.17;17.17;;;6.70;17.00;;;;;;5032825;28;20209;-68
2024/02/28 05:41:02;;;;;;;25.67;15.97;;;6.70;17.00;;;;;;5032843;28;20324;-68
2024/02/28 05:43:27;;;;;;;29.43;15.50;;;6.70;17.00;;;;;;5014591;28;20286;-67
2024/02/28 05:45:53;;;;;;;25.20;15.90;;;6.70;17.00;;;;;;5032510;28;20179;-68
2024/02/28 05:48:18;;;;;;;24.57;17.37;;;6.60;16.40;;;;;;5032640;28;20673;-68
2024/02/28 05:50:44;;;;;;;33.60;19.30;;;6.60;16.90;;;;;;5032515;28;20176;-68
2024/02/28 05:53:10;;;;;;;24.93;16.43;;;6.60;16.90;;;;;;5032420;28;20179;-69
2024/02/28 05:55:35;;;;;;;28.47;18.03;;;6.70;16.10;;;;;;5014763;28;20172;-69
2024/02/28 05:58:01;;;;;;;22.87;16.33;;;6.60;16.90;;;;;;5032366;28;20211;-69
2024/02/28 06:00:27;;;;;;;25.87;18.00;;;6.60;16.40;;;;;;5032407;28;20176;-68
2024/02/28 06:02:53;;;;;;;25.80;16.20;;;6.50;17.00;;;;;;5032329;28;20218;-69
2024/02/28 06:05:19;;;;;;;29.70;17.87;;;6.60;16.90;;;;;;5032462;28;20434;-70
2024/02/28 06:07:44;;;;;;;27.03;18.53;;;6.60;16.10;;;;;;5014813;28;20175;-70
2024/02/28 06:10:10;;;;;;;20.70;16.43;;;6.50;16.80;;;;;;5032453;28;20183;-69
2024/02/28 06:12:36;;;;;;;26.30;15.70;;;6.50;17.40;;;;;;5031948;28;20261;-69
2024/02/28 06:15:02;;;;;;;31.17;18.60;;;6.60;17.30;;;;;;5014338;28;20207;-69
2024/02/28 06:17:28;;;;;;;31.93;20.90;;;6.60;16.70;;;;;;5032293;28;20418;-69
2024/02/28 06:19:53;;;;;;;29.27;16.07;;;6.60;16.20;;;;;;5032134;28;20449;-69
2024/02/28 06:22:19;;;;;;;31.27;18.90;;;6.50;16.80;;;;;;5014130;28;20435;-69
2024/02/28 06:24:47;;;;;;;29.57;18.57;;;6.40;17.70;;;;;;5030970;28;20172;-70
2024/02/28 06:27:13;;;;;;;25.30;17.93;;;6.40;17.50;;;;;;5031938;28;20272;-68
2024/02/28 06:29:40;;;;;;;30.43;20.73;;;6.50;17.80;;;;;;5014192;28;20494;-69
2024/02/28 06:32:06;;;;;;;25.10;17.07;;;6.50;16.80;;;;;;5031740;28;20202;-69
2024/02/28 06:34:31;;;;;;;27.27;18.20;;;6.50;18.00;;;;;;5031292;28;20965;-69
2024/02/28 06:36:57;;;;;;;26.33;16.93;;;6.50;17.50;;;;;;5031631;28;20197;-69
2024/02/28 06:39:22;;;;;;;27.87;17.33;;;6.40;16.80;;;;;;5013759;28;20191;-69
2024/02/28 06:41:51;;;;;;;30.30;17.47;;;6.40;16.80;;;;;;5031103;28;20207;-68
2024/02/28 06:44:19;;;;;;;28.07;18.70;;;6.40;17.20;;;;;;5030992;28;20548;-69
2024/02/28 06:46:45;;;;;;;29.37;16.57;;;6.40;17.90;;;;;;5031050;28;20920;-69
2024/02/28 06:49:10;;;;;;;31.93;19.70;;;6.40;17.80;;;;;;5013242;28;20445;-69
2024/02/28 06:51:36;;;;;;;34.53;18.63;;;6.40;18.00;;;;;;5030918;28;20294;-69
2024/02/28 06:54:02;;;;;;;26.23;17.10;;;6.40;16.90;;;;;;5030721;28;20206;-69
2024/02/28 06:56:27;;;;;;;27.27;16.30;;;6.50;17.70;;;;;;5031517;28;20188;-68
2024/02/28 06:58:53;;;;;;;25.60;17.93;;;6.50;16.50;;;;;;5031201;28;20211;-69
2024/02/28 07:01:18;;;;;;;26.53;17.97;;;6.40;16.80;;;;;;5030836;28;20199;-69
2024/02/28 07:03:44;;;;;;;30.40;19.27;;;6.40;16.80;;;;;;5030633;28;20183;-69
2024/02/28 07:06:11;;;;;;;24.93;16.80;;;6.60;17.50;;;;;;5030669;28;20546;-69
2024/02/28 07:08:37;;;;;;;29.80;17.67;;;6.60;15.40;;;;;;5012998;28;20183;-68
2024/02/28 07:11:02;;;;;;;27.60;18.33;;;6.60;14.90;;;;;;5030285;28;20970;-68
2024/02/28 07:13:28;;;;;;;24.23;16.73;;;6.60;15.10;;;;;;5012380;28;20207;-68
2024/02/28 07:15:54;;;;;;;24.17;16.07;;;6.60;15.10;;;;;;5012915;28;20245;-68
2024/02/28 07:18:20;;;;;;;24.73;17.77;;;6.70;15.30;;;;;;5012817;28;20418;-68
2024/02/28 07:20:46;;;;;;;27.10;16.63;;;6.80;14.80;;;;;;5030992;28;20618;-68
2024/02/28 07:23:12;;;;;;;32.07;17.60;;;6.80;13.80;;;;;;5030650;28;20472;-69
2024/02/28 07:25:37;;;;;;;27.10;17.47;;;6.80;14.00;;;;;;5030579;28;20172;-69
2024/02/28 07:28:03;;;;;;;26.50;17.73;;;6.70;13.80;;;;;;5030553;28;20464;-69
2024/02/28 07:30:29;;;;;;;27.47;17.40;;;6.80;13.80;;;;;;5030577;28;20172;-68
2024/02/28 07:32:54;;;;;;;29.03;19.50;;;6.80;14.10;;;;;;5030730;28;20453;-69
2024/02/28 07:35:20;;;;;;;25.10;16.70;;;7.00;12.90;;;;;;5032766;28;20610;-67
2024/02/28 07:37:46;;;;;;;26.53;17.30;;;7.00;12.10;;;;;;5034625;28;20566;-69
2024/02/28 07:40:12;;;;;;;28.70;17.50;;;7.00;11.90;;;;;;5034443;28;20418;-68
2024/02/28 07:42:38;;;;;;;28.53;17.90;;;7.10;11.40;;;;;;5016235;28;20234;-69
2024/02/28 07:45:03;;;;;;;26.47;14.53;;;7.20;11.50;;;;;;5031019;28;20199;-69
2024/02/28 07:47:29;;;;;;;30.57;19.30;;;7.20;10.10;;;;;;5012964;28;20195;-69
2024/02/28 07:49:55;;;;;;;23.83;17.13;;;7.10;10.30;;;;;;5030117;28;20786;-68
2024/02/28 07:52:20;;;;;;;25.03;15.93;;;7.10;10.40;;;;;;5029790;28;20681;-68
2024/02/28 07:54:46;;;;;;;25.80;17.23;;;7.10;9.90;;;;;;5030296;28;20208;-68
2024/02/28 07:57:12;;;;;;;24.17;15.97;;;7.10;9.90;;;;;;5030437;28;20653;-70
2024/02/28 07:59:44;;;;;;;25.13;16.30;;;7.20;8.80;;;;;;5029679;28;20185;-70
2024/02/28 08:02:12;;;;;;;25.43;15.73;;;7.20;8.80;;;;;;5033158;28;21010;-67
2024/02/28 08:04:38;;;;;;;23.73;17.00;;;7.20;8.60;;;;;;5033859;28;20864;-68
2024/02/28 08:07:04;;;;;;;22.77;14.83;;;7.20;8.60;;;;;;5034069;28;20496;-73
2024/02/28 08:09:30;;;;;;;28.87;19.23;;;7.20;9.10;;;;;;5016246;28;21042;-71
2024/02/28 08:11:57;;;;;;;24.33;16.13;;;7.30;9.20;;;;;;5034129;28;20842;-72
2024/02/28 08:14:23;;;;;;;27.37;16.50;;;7.40;8.50;;;;;;5016215;28;20575;-72
2024/02/28 08:16:48;;;;;;;23.37;17.00;;;7.50;8.00;;;;;;5034204;28;20497;-73
2024/02/28 08:19:14;;;;;;;24.63;16.43;;;7.70;7.20;;;;;;5034315;28;20268;-72
2024/02/28 08:21:39;;;;;;;27.07;17.47;;;7.80;5.20;;;;;;5034070;28;20235;-72
2024/02/28 08:24:05;;;;;;;22.57;15.87;;;7.70;5.70;;;;;;5015815;28;20183;-72
2024/02/28 08:26:31;;;;;;;24.57;15.77;;;7.60;5.60;;;;;;5007077;28;20273;-72
2024/02/28 08:28:57;;;;;;;27.53;18.87;;;7.50;6.00;;;;;;5035561;28;20437;-71
2024/02/28 08:31:22;;;;;;;31.80;19.90;;;7.60;7.10;;;;;;5025617;28;20458;-71
2024/02/28 08:33:48;;;;;;;27.53;16.57;;;7.70;6.60;;;;;;5013851;28;20287;-72
2024/02/28 08:36:15;;;;;;;24.80;14.43;;;7.80;5.50;;;;;;5013966;28;20190;-71
2024/02/28 08:38:40;;;;;;;28.80;16.07;;;7.80;4.60;;;;;;5017915;28;20626;-71
2024/02/28 08:41:07;;;;;;;22.20;15.07;;;7.90;4.60;;;;;;5015811;28;20634;-71
2024/02/28 08:43:33;;;;;;;24.80;16.13;;;7.80;4.60;;;;;;5024615;28;20186;-71
2024/02/28 08:45:59;;;;;;;24.70;16.70;;;7.60;4.50;;;;;;4995372;28;20848;-72
2024/02/28 08:48:24;;;;;;;29.00;16.50;;;7.60;5.80;;;;;;5013432;28;20456;-72
2024/02/28 08:50:50;;;;;;;25.50;17.00;;;7.60;5.60;;;;;;5013541;28;20382;-72
2024/02/28 08:53:15;;;;;;;27.80;17.73;;;7.60;4.50;;;;;;5020441;28;20217;-72
2024/02/28 08:55:41;;;;;;;22.00;16.17;;;7.60;5.00;;;;;;5015504;28;20185;-71
2024/02/28 08:58:06;;;;;;;21.63;16.00;;;7.70;4.50;;;;;;5033330;28;20294;-71
2024/02/28 09:00:32;;;;;;;22.50;15.53;;;7.50;4.20;;;;;;5033504;28;20181;-71
2024/02/28 09:02:57;;;;;;;24.70;17.70;;;7.60;4.50;;;;;;5033107;28;20180;-71
2024/02/28 09:05:23;;;;;;;23.93;15.60;;;7.60;4.40;;;;;;5015333;28;20274;-71
2024/02/28 09:07:51;;;;;;;20.53;13.70;;;7.70;4.20;;;;;;5033205;28;20299;-71
2024/02/28 09:10:21;;;;;;;26.67;17.47;;;7.70;4.50;;;;;;5015213;28;20506;-73
2024/02/28 09:12:47;;;;;;;23.20;14.93;;;7.70;3.40;;;;;;5039723;22;20492;-69
2024/02/28 09:15:13;;;;;;;21.00;15.43;;;7.70;4.50;;;;;;5016262;28;20462;-70
2024/02/28 09:17:38;;;;;;;24.10;16.00;;;7.70;2.50;;;;;;5030548;28;20435;-72
2024/02/28 09:20:06;;;;;;;22.93;14.83;;;7.70;3.00;;;;;;5017804;28;20254;-78
2024/02/28 09:22:32;;;;;;;21.73;14.60;;;7.70;2.80;;;;;;5016667;28;20205;-71
2024/02/28 09:24:58;;;;;;;20.50;16.10;;;7.70;2.90;;;;;;5010525;28;20427;-72
2024/02/28 09:27:24;;;;;;;22.23;17.07;;;7.60;3.80;;;;;;5009409;28;20445;-72
2024/02/28 09:29:50;;;;;;;19.23;14.23;;;7.70;3.50;;;;;;4987746;28;20296;-74
2024/02/28 09:32:15;;;;;;;21.47;14.60;;;7.80;3.10;;;;;;5009817;28;20544;-72
2024/02/28 09:34:41;;;;;;;22.17;14.27;;;7.80;3.40;;;;;;5009327;28;20216;-72
2024/02/28 09:37:07;;;;;;;23.50;14.53;;;7.80;3.30;;;;;;4992788;28;20186;-72
2024/02/28 09:39:32;;;;;;;22.80;16.17;;;7.70;1.80;;;;;;5009630;28;20439;-73
2024/02/28 09:41:58;;;;;;;26.77;15.27;;;7.70;2.60;;;;;;5009487;28;20218;-73
2024/02/28 09:44:24;;;;;;;33.07;14.73;;;7.70;3.40;;;;;;5010041;28;20205;-72
2024/02/28 09:46:53;;;;;;;24.70;16.60;;;7.90;2.20;;;;;;4991979;28;20198;-72
2024/02/28 09:49:19;;;;;;;26.93;14.60;;;7.80;2.60;;;;;;5009267;28;20623;-69
2024/02/28 09:51:49;;;;;;;23.67;16.60;;;7.80;2.20;;;;;;4992337;28;20452;-71
2024/02/28 09:54:18;;;;;;;23.30;15.10;;;7.80;1.90;;;;;;4993106;28;20473;-69
2024/02/28 09:56:44;;;;;;;21.53;15.30;;;7.90;2.10;;;;;;4997622;28;20830;-69
2024/02/28 09:59:11;;;;;;;26.10;15.80;;;7.90;1.30;;;;;;4995532;28;20429;-70
2024/02/28 10:01:44;;;;;;;24.57;17.53;;;8.00;2.10;;;;;;5009176;28;20201;-71
2024/02/28 10:04:12;;;;;;;24.63;16.43;;;8.00;1.50;;;;;;5009727;28;20422;-70
2024/02/28 10:06:41;;;;;;;22.37;14.87;;;7.90;1.40;;;;;;5008155;28;20779;-71
2024/02/28 10:09:07;;;;;;;27.50;15.50;;;7.90;2.40;;;;;;5008761;28;20837;-70
2024/02/28 10:11:35;;;;;;;26.23;17.87;;;7.90;2.00;;;;;;5009162;28;20464;-69
2024/02/28 10:14:02;;;;;;;23.53;15.37;;;7.80;3.10;;;;;;5008650;28;20690;-68
2024/02/28 10:16:29;;;;;;;18.40;14.60;;;7.90;1.80;;;;;;4991079;28;20433;-68
2024/02/28 10:18:55;;;;;;;22.10;16.23;;;7.90;2.20;;;;;;5008762;28;20444;-69
2024/02/28 10:21:20;;;;;;;28.80;16.10;;;8.10;1.30;;;;;;4991959;28;20453;-72
2024/02/28 10:23:46;;;;;;;25.60;15.97;;;8.30;1.00;;;;;;4990531;28;20480;-71
2024/02/28 10:26:12;;;;;;;21.03;14.30;;;8.30;1.00;;;;;;5010981;28;20238;-71
2024/02/28 10:28:39;;;;;;;21.60;15.30;;;8.50;1.00;;;;;;4995225;28;20715;-71
2024/02/28 10:31:07;;;;;;;25.20;14.00;;;8.30;1.00;;;;;;5009945;28;20449;-69
2024/02/28 10:33:33;;;;;;;23.93;15.07;;;8.10;1.00;;;;;;4992396;28;21059;-71
2024/02/28 10:35:59;;;;;;;25.03;15.43;;;8.10;1.00;;;;;;5005356;28;20786;-73
2024/02/28 10:38:26;;;;;;;22.03;14.77;;;8.20;1.00;;;;;;5011358;28;20448;-72
2024/02/28 10:40:53;;;;;;;24.80;15.33;;;8.30;1.00;;;;;;5012700;28;20181;-71
2024/02/28 10:43:20;;;;;;;24.00;15.40;;;8.30;1.00;;;;;;4995309;28;20433;-73
2024/02/28 10:45:46;;;;;;;21.37;14.93;;;8.20;1.00;;;;;;5013076;28;20451;-70
2024/02/28 10:48:17;;;;;;;22.03;14.30;;;8.10;1.00;;;;;;4995379;28;20421;-72
2024/02/28 10:50:50;;;;;;;21.73;14.20;;;8.20;1.00;;;;;;5013617;28;20952;-70
2024/02/28 10:53:20;;;;;;;20.57;13.33;;;8.30;1.00;;;;;;4996140;28;20464;-70
2024/02/28 10:55:51;;;;;;;18.90;13.50;;;8.20;1.00;;;;;;4982482;28;20425;-73
2024/02/28 10:58:22;;;;;;;24.47;14.90;;;8.00;1.00;;;;;;4995834;28;20495;-69
2024/02/28 11:00:49;;;;;;;28.67;17.07;;;8.10;1.00;;;;;;4994600;28;20433;-71
2024/02/28 11:03:17;;;;;;;18.83;13.30;;;8.30;1.00;;;;;;5013769;28;20440;-71
2024/02/28 11:05:47;;;;;;;21.30;14.97;;;8.30;1.00;;;;;;5010708;28;20425;-71
2024/02/28 11:08:22;;;;;;;21.10;16.27;;;8.20;1.00;;;;;;5009266;28;20425;-71
2024/02/28 11:10:54;;;;;;;21.77;15.60;;;8.20;1.00;;;;;;4995766;28;20430;-73
2024/02/28 11:13:26;;;;;;;24.47;15.90;;;8.20;1.00;;;;;;4997808;28;20480;-72
2024/02/28 11:15:52;;;;;;;19.83;14.03;;;8.30;1.00;;;;;;4996250;28;20432;-71
2024/02/28 11:18:19;;;;;;;23.10;15.70;;;8.40;1.00;;;;;;5016809;28;20437;-70
2024/02/28 11:20:50;;;;;;;24.83;16.70;;;8.50;1.00;;;;;;5000643;28;20438;-70
2024/02/28 11:23:17;;;;;;;32.43;15.80;;;8.50;1.00;;;;;;5017542;28;20819;-70
2024/02/28 11:25:43;;;;;;;20.70;15.30;;;8.60;1.00;;;;;;4999118;28;20418;-71
2024/02/28 11:28:09;;;;;;;26.97;17.13;;;8.60;1.00;;;;;;5011472;28;20915;-72
2024/02/28 11:30:35;;;;;;;23.87;16.37;;;8.80;1.00;;;;;;5009124;28;20430;-72
2024/02/28 11:33:02;;;;;;;25.73;15.20;;;9.00;1.00;;;;;;5008760;28;20441;-70
2024/02/28 11:35:28;;;;;;;21.77;15.47;;;9.20;1.00;;;;;;4991435;28;20838;-71
2024/02/28 11:37:59;;;;;;;24.63;15.13;;;9.20;1.00;;;;;;4990973;28;20568;-71
2024/02/28 11:40:25;;;;;;;20.30;14.67;;;9.20;1.00;;;;;;5008705;28;20261;-71
2024/02/28 11:42:52;;;;;;;27.47;16.70;;;9.30;1.00;;;;;;4990627;28;20579;-71
2024/02/28 11:45:18;;;;;;;25.90;15.20;;;9.40;1.00;;;;;;5009183;28;20565;-72
2024/02/28 11:47:44;;;;;;;18.57;14.23;;;9.50;1.00;;;;;;5009000;28;20518;-71
2024/02/28 11:50:10;;;;;;;24.03;14.40;;;9.70;1.00;;;;;;5009562;28;20419;-74
2024/02/28 11:52:36;;;;;;;22.60;15.00;;;9.50;1.00;;;;;;5008477;28;20511;-71
2024/02/28 11:55:02;;;;;;;26.23;17.13;;;9.20;1.00;;;;;;4991579;28;20211;-72
2024/02/28 11:57:29;;;;;;;19.97;15.07;;;9.10;1.00;;;;;;4990634;28;20191;-72
2024/02/28 11:59:58;;;;;;;19.23;14.50;;;9.10;1.00;;;;;;5008437;28;20418;-72
2024/02/28 12:02:30;;;;;;;23.20;16.17;;;8.90;1.00;;;;;;4991042;28;20452;-71
2024/02/28 12:04:59;;;;;;;21.67;15.20;;;8.80;1.00;;;;;;5008574;28;20461;-72
2024/02/28 12:07:25;;;;;;;21.30;14.47;;;8.70;1.00;;;;;;4990411;28;20849;-71
2024/02/28 12:09:51;;;;;;;22.30;15.33;;;8.60;1.00;;;;;;4991465;28;20422;-72
2024/02/28 12:12:18;;;;;;;24.53;15.60;;;8.60;1.00;;;;;;4993723;28;20740;-72
2024/02/28 12:14:46;;;;;;;24.77;15.83;;;8.70;1.00;;;;;;5010439;28;20229;-71
2024/02/28 12:17:16;;;;;;;21.00;15.53;;;8.60;1.00;;;;;;4990569;28;20970;-71
2024/02/28 12:19:42;;;;;;;33.90;15.10;;;8.70;1.00;;;;;;5008927;28;20430;-70
2024/02/28 12:22:08;;;;;;;23.80;14.20;;;8.70;1.00;;;;;;4993029;28;20514;-71
2024/02/28 12:24:37;;;;;;;22.67;13.77;;;8.70;1.00;;;;;;5012005;28;20440;-72
2024/02/28 12:27:06;;;;;;;24.77;15.10;;;8.70;1.00;;;;;;5010774;28;20448;-72
2024/02/28 12:29:32;;;;;;;19.30;14.10;;;8.70;1.00;;;;;;5012863;28;20801;-71
2024/02/28 12:31:57;;;;;;;23.80;16.17;;;8.50;1.00;;;;;;5011283;28;20524;-71
2024/02/28 12:34:23;;;;;;;20.67;15.17;;;8.70;1.00;;;;;;4993890;28;20210;-70
2024/02/28 12:36:48;;;;;;;20.27;13.60;;;8.50;1.00;;;;;;5011690;28;20717;-73